Latest Coastal Weather Observations for Cape Wessel

IDD60701

Issued at 3:15 am CST Saturday 22 November 2014 (issued every 10 minutes, with the page automatically refreshed every 10 minutes)

About coastal observations | Map of coastal stations | Coastal observations for NT | Marine services | Other Formats
Station Details ID: 200786 Name: CAPE WESSEL Lat: -11.00 Lon: 136.76 Height: 18.0 m
Data from the previous 72 hours. | See also: Recent months for locations in Northern Territory
Date/Time
CST
Temp

°C
Wind Pressure Rain
since 9am
mm
Weather Cloud Vis
km
Sea
Height
m
Swell
Dir
 
Speed
knots
Gust
knots
hPa Trend Height
m
Period
s
Dir
22/03:00am 25.5 E 4 5 1009.5 - 0.0 - - - - - - -
22/02:30am 25.3 ESE 1 4 1009.5 - 0.0 - - - - - - -
22/02:00am 25.1 CALM 0 0 1009.3 - 0.0 - - - - - - -
22/01:30am 25.6 ESE 3 4 1009.3 - 0.0 - - - - - - -
22/01:00am 26.5 ESE 5 7 1009.6 - 0.0 - - - - - - -
22/12:30am 26.9 E 8 10 1010.0 - 0.0 - - - - - - -
22/12:00am 26.9 ESE 7 9 1010.2 - 0.0 - - - - - - -
 
Date/Time
CST
Temp

°C
Wind Pressure Rain
since 9am
mm
Weather Cloud Vis
km
Sea
Height
m
Swell
Dir
 
Speed
knots
Gust
knots
hPa Trend Height
m
Period
s
Dir
21/11:30pm 27.0 E 8 10 1010.2 - 0.0 - - - - - - -
21/11:00pm 27.1 E 10 12 1010.3 - 0.0 - - - - - - -
21/10:30pm 27.2 E 11 14 1010.5 - 0.0 - - - - - - -
21/10:00pm 27.2 E 10 12 1010.3 - 0.0 - - - - - - -
21/09:30pm 27.3 E 11 13 1010.2 - 0.0 - - - - - - -
21/09:00pm 27.3 E 11 13 1010.5 - 0.0 - - - - - - -
21/08:30pm 27.2 E 10 12 1010.0 - 0.0 - - - - - - -
21/08:00pm 27.3 E 10 12 1009.7 - 0.0 - - - - - - -
21/07:30pm 27.4 E 10 13 1009.3 - 0.0 - - - - - - -
21/07:00pm 27.7 E 10 12 1009.3 - 0.0 - - - - - - -
21/06:30pm 28.0 E 10 13 1009.2 - 0.0 - - - - - - -
21/06:00pm 28.8 E 10 13 1009.2 - 0.0 - - - - - - -
21/05:30pm 29.7 E 11 13 1008.9 - 0.0 - - - - - - -
21/05:00pm 31.0 E 9 11 1008.8 - 0.0 - - - - - - -
21/04:30pm 31.2 E 10 11 1008.7 - 0.0 - - - - - - -
21/04:00pm 31.7 E 10 13 1008.8 - 0.0 - - - - - - -
21/03:30pm 31.7 E 10 13 1008.9 - 0.0 - - - - - - -
21/03:00pm 33.1 E 10 14 1009.2 - 0.0 - - - - - - -
21/02:30pm 31.5 ENE 9 12 1009.4 - 0.0 - - - - - - -
21/02:00pm 33.2 ENE 11 13 1009.6 - 0.0 - - - - - - -
21/01:30pm 33.6 ENE 11 15 1009.9 - 0.0 - - - - - - -
21/01:00pm 32.4 ENE 11 15 1010.3 - 0.0 - - - - - - -
21/12:30pm 33.7 E 10 13 1010.7 - 0.0 - - - - - - -
21/12:00pm 33.9 E 10 14 1011.1 - 0.0 - - - - - - -
21/11:30am 33.5 E 10 12 1011.4 - 0.0 - - - - - - -
21/11:00am 32.9 E 11 14 1011.7 - 0.0 - - - - - - -
21/10:30am 32.7 ENE 11 15 1011.9 - 0.0 - - - - - - -
21/10:00am 33.1 E 11 15 1012.0 - 0.0 - - - - - - -
21/09:30am 32.3 E 13 17 1012.1 - 0.0 - - - - - - -
21/09:00am 31.6 ENE 13 16 1012.1 - 0.0 - - - - - - -
21/08:30am 31.3 ENE 12 15 1012.0 - 0.0 - - - - - - -
21/08:00am 30.1 ENE 10 13 1011.9 - 0.0 - - - - - - -
21/07:30am 29.6 ENE 11 15 1011.6 - 0.0 - - - - - - -
21/07:00am 28.4 ENE 11 14 1011.2 - 0.0 - - - - - - -
21/06:30am 27.5 ENE 8 11 1010.9 - 0.0 - - - - - - -
21/06:00am 26.9 ENE 6 8 1010.6 - 0.0 - - - - - - -
21/05:30am 26.9 ENE 7 10 1010.0 - 0.0 - - - - - - -
21/05:00am 26.9 E 9 11 1009.7 - 0.0 - - - - - - -
21/04:30am 26.8 E 8 10 1009.4 - 0.0 - - - - - - -
21/04:00am 27.0 ESE 8 10 1009.2 - 0.0 - - - - - - -
21/03:30am 26.7 E 9 11 1009.0 - 0.0 - - - - - - -
21/03:00am 26.5 E 8 10 1009.1 - 0.0 - - - - - - -
21/02:30am 26.5 E 8 9 1009.2 - 0.0 - - - - - - -
21/02:00am 26.5 E 7 9 1009.5 - 0.0 - - - - - - -
21/01:30am 26.0 E 6 7 1009.7 - 0.0 - - - - - - -
21/01:00am 25.7 E 5 6 1009.7 - 0.0 - - - - - - -
21/12:30am 26.1 ESE 5 6 1010.1 - 0.0 - - - - - - -
21/12:00am 26.5 E 7 8 1010.5 - 0.0 - - - - - - -
 
Date/Time
CST
Temp

°C
Wind Pressure Rain
since 9am
mm
Weather Cloud Vis
km
Sea
Height
m
Swell
Dir
 
Speed
knots
Gust
knots
hPa Trend Height
m
Period
s
Dir
20/11:30pm 26.8 E 7 9 1010.6 - 0.0 - - - - - - -
20/11:00pm 27.1 E 9 11 1010.9 - 0.0 - - - - - - -
20/10:30pm 27.2 E 11 13 1011.0 - 0.0 - - - - - - -
20/10:00pm 27.3 E 12 14 1011.1 - 0.0 - - - - - - -
20/09:30pm 27.4 E 12 15 1011.0 - 0.0 - - - - - - -
20/09:00pm 27.5 E 13 16 1011.0 - 0.0 - - - - - - -
20/08:30pm 27.5 E 11 14 1010.8 - 0.0 - - - - - - -
20/08:00pm 27.5 E 12 15 1010.7 - 0.0 - - - - - - -
20/07:30pm 27.5 E 12 15 1010.1 - 0.0 - - - - - - -
20/07:00pm 27.7 E 12 15 1009.8 - 0.0 - - - - - - -
20/06:30pm 28.0 E 11 14 1009.5 - 0.0 - - - - - - -
20/06:00pm 28.7 E 12 15 1009.6 - 0.0 - - - - - - -
20/05:30pm 29.4 E 12 15 1008.8 - 0.0 - - - - - - -
20/05:00pm 30.6 E 12 15 1008.8 - 0.0 - - - - - - -
20/04:30pm 31.4 E 12 15 1008.7 - 0.0 - - - - - - -
20/04:00pm 32.0 E 12 16 1008.8 - 0.0 - - - - - - -
20/03:30pm 32.1 E 12 14 1008.8 - 0.0 - - - - - - -
20/03:00pm 31.6 E 13 15 1009.3 - 0.0 - - - - - - -
20/02:30pm 33.8 E 12 15 1009.6 - 0.0 - - - - - - -
20/02:00pm 33.1 E 13 16 1009.8 - 0.0 - - - - - - -
20/01:30pm 33.2 E 13 17 1010.2 - 0.0 - - - - - - -
20/01:00pm 33.6 E 13 15 1010.5 - 0.0 - - - - - - -
20/12:30pm 32.7 E 11 14 1011.0 - 0.0 - - - - - - -
20/12:00pm 33.0 E 11 14 1011.5 - 0.0 - - - - - - -
20/11:30am 32.5 E 11 14 1011.7 - 0.0 - - - - - - -
20/11:00am 33.1 ENE 12 14 1011.7 - 0.0 - - - - - - -
20/10:30am 33.0 ENE 12 15 1011.8 - 0.0 - - - - - - -
20/10:00am 32.8 ENE 11 16 1012.0 - 0.0 - - - - - - -
20/09:30am 32.1 ENE 13 16 1012.0 - 0.0 - - - - - - -
20/09:00am 31.7 ENE 11 14 1012.2 - 0.0 - - - - - - -
20/08:30am 30.9 ENE 13 18 1011.9 - 0.0 - - - - - - -
20/08:00am 30.5 NE 12 15 1011.7 - 0.0 - - - - - - -
20/07:30am 29.5 NE 12 15 1011.5 - 0.0 - - - - - - -
20/07:00am 28.6 ENE 10 13 1011.0 - 0.0 - - - - - - -
20/06:30am 27.7 ENE 10 11 1010.8 - 0.0 - - - - - - -
20/06:00am 27.3 ENE 9 12 1010.6 - 0.0 - - - - - - -
20/05:30am 27.4 ENE 10 13 1010.0 - 0.0 - - - - - - -
20/05:00am 27.4 ENE 12 15 1009.7 - 0.0 - - - - - - -
20/04:30am 27.4 ENE 11 13 1009.4 - 0.0 - - - - - - -
20/04:00am 27.4 ENE 10 13 1009.3 - 0.0 - - - - - - -
20/03:30am 27.4 ENE 10 13 1009.5 - 0.0 - - - - - - -
20/03:00am 27.4 ENE 13 16 1009.4 - 0.0 - - - - - - -
20/02:30am 27.4 E 13 15 1009.4 - 0.0 - - - - - - -
20/02:00am 27.3 E 10 13 1009.5 - 0.0 - - - - - - -
20/01:30am 27.4 E 9 11 1009.8 - 0.0 - - - - - - -
20/01:00am 27.5 E 11 13 1009.8 - 0.0 - - - - - - -
20/12:30am 27.6 ESE 10 13 1010.1 - 0.0 - - - - - - -
20/12:00am 27.7 ESE 12 14 1010.4 - 0.0 - - - - - - -
 
Date/Time
CST
Temp

°C
Wind Pressure Rain
since 9am
mm
Weather Cloud Vis
km
Sea
Height
m
Swell
Dir
 
Speed
knots
Gust
knots
hPa Trend Height
m
Period
s
Dir
19/11:30pm 27.7 ESE 12 15 1010.5 - 0.0 - - - - - - -
19/11:00pm 27.8 ESE 12 14 1010.8 - 0.0 - - - - - - -
19/10:30pm 27.8 SE 13 16 1010.8 - 0.0 - - - - - - -
19/10:00pm 27.9 SE 13 15 1010.9 - 0.0 - - - - - - -
19/09:30pm 27.8 ESE 11 13 1010.8 - 0.0 - - - - - - -
19/09:00pm 27.8 SE 11 14 1010.7 - 0.0 - - - - - - -
19/08:30pm 28.0 SE 13 16 1010.7 - 0.0 - - - - - - -
19/08:00pm 28.1 SE 12 15 1010.5 - 0.0 - - - - - - -
19/07:30pm 27.7 SE 9 11 1010.1 - 0.0 - - - - - - -
19/07:00pm 27.7 SE 7 9 1009.8 - 0.0 - - - - - - -
19/06:30pm 28.0 SE 7 8 1009.5 - 0.0 - - - - - - -
19/06:00pm 29.2 SSE 6 8 1009.4 - 0.0 - - - - - - -
19/05:30pm 30.3 SSE 7 9 1009.3 - 0.0 - - - - - - -
19/05:00pm 31.0 SSE 8 10 1009.4 - 0.0 - - - - - - -
19/04:30pm 32.2 SSE 8 11 1009.4 - 0.0 - - - - - - -
19/04:00pm 32.0 SSE 8 10 1009.4 - 0.0 - - - - - - -
19/03:30pm 32.2 SE 8 9 1009.7 - 0.0 - - - - - - -
19/03:00pm 31.7 ESE 8 10 1010.0 - 0.0 - - - - - - -
19/02:30pm 32.6 E 8 10 1010.2 - 0.0 - - - - - - -
19/02:00pm 32.6 ESE 8 10 1010.6 - 0.0 - - - - - - -
19/01:30pm 32.9 E 9 11 1011.0 - 0.0 - - - - - - -
19/01:00pm 33.4 ENE 9 11 1011.3 - 0.0 - - - - - - -
19/12:30pm 32.8 ENE 9 12 1011.6 - 0.0 - - - - - - -
19/12:00pm 32.7 ENE 9 11 1012.3 - 0.0 - - - - - - -
19/11:30am 33.2 NE 10 12 1012.7 - 0.0 - - - - - - -
19/11:00am 32.9 ENE 9 11 1013.0 - 0.0 - - - - - - -
19/10:30am 33.0 ENE 9 10 1013.3 - 0.0 - - - - - - -
19/10:00am 31.9 ENE 10 12 1013.7 - 0.0 - - - - - - -
19/09:30am 31.8 NE 9 11 1013.8 - 0.0 - - - - - - -
19/09:00am 31.7 ENE 10 13 1013.9 - 0.0 - - - - - - -
19/08:30am 30.7 NE 11 13 1013.8 - 0.0 - - - - - - -
19/08:00am 29.4 NE 12 16 1013.6 - 0.0 - - - - - - -
19/07:30am 29.4 ENE 10 13 1013.3 - 0.0 - - - - - - -
19/07:00am 28.0 ENE 9 11 1012.9 - 0.0 - - - - - - -
19/06:30am 26.9 ENE 10 13 1012.5 - 0.0 - - - - - - -
19/06:00am 26.2 ENE 11 15 1012.2 - 0.0 - - - - - - -
19/05:30am 25.9 E 11 14 1011.7 - 0.0 - - - - - - -
19/05:00am 25.7 ENE 9 12 1011.3 - 0.0 - - - - - - -
19/04:30am 25.6 E 9 11 1011.0 - 0.0 - - - - - - -
19/04:00am 24.9 ENE 6 8 1010.6 - 0.0 - - - - - - -
19/03:30am 25.3 ENE 7 8 1010.6 - 0.0 - - - - - - -

Other Formats:

Comma delimited format used in spreadsheet applications
http://www.bom.gov.au/fwo/IDD60701/IDD60701.94147.axf

JavaScript Object Notation format (JSON) in row-major order
http://www.bom.gov.au/fwo/IDD60701/IDD60701.94147.json